sensor_id;sensor_type;location;lat;lon;timestamp;pressure;altitude;pressure_sealevel;temperature;humidity
8160;BME280;27404;52.398;9.646;2023-03-21T00:00:15;100955.22;;;6.77;100.00
8160;BME280;27404;52.398;9.646;2023-03-21T00:02:41;100952.69;;;6.76;100.00
8160;BME280;27404;52.398;9.646;2023-03-21T00:05:07;100948.50;;;6.73;100.00
8160;BME280;27404;52.398;9.646;2023-03-21T00:07:32;100949.56;;;6.72;100.00
8160;BME280;27404;52.398;9.646;2023-03-21T00:09:57;100944.53;;;6.69;100.00
8160;BME280;27404;52.398;9.646;2023-03-21T00:12:23;100947.25;;;6.76;100.00
8160;BME280;27404;52.398;9.646;2023-03-21T00:14:48;100944.31;;;6.71;100.00
8160;BME280;27404;52.398;9.646;2023-03-21T00:17:15;100939.28;;;6.67;100.00
8160;BME280;27404;52.398;9.646;2023-03-21T00:19:41;100941.78;;;6.62;100.00
8160;BME280;27404;52.398;9.646;2023-03-21T00:22:06;100945.75;;;6.66;100.00
8160;BME280;27404;52.398;9.646;2023-03-21T00:24:32;100938.25;;;6.69;100.00
8160;BME280;27404;52.398;9.646;2023-03-21T00:26:58;100937.19;;;6.70;100.00
8160;BME280;27404;52.398;9.646;2023-03-21T00:29:23;100925.94;;;6.73;100.00
8160;BME280;27404;52.398;9.646;2023-03-21T00:31:48;100928.88;;;6.71;100.00
8160;BME280;27404;52.398;9.646;2023-03-21T00:34:14;100926.38;;;6.76;100.00
8160;BME280;27404;52.398;9.646;2023-03-21T00:36:40;100923.25;;;6.79;100.00
8160;BME280;27404;52.398;9.646;2023-03-21T00:39:05;100920.50;;;6.73;100.00
8160;BME280;27404;52.398;9.646;2023-03-21T00:41:31;100919.91;;;6.77;100.00
8160;BME280;27404;52.398;9.646;2023-03-21T00:43:56;100917.81;;;6.79;100.00
8160;BME280;27404;52.398;9.646;2023-03-21T00:46:22;100920.72;;;6.78;100.00
8160;BME280;27404;52.398;9.646;2023-03-21T00:48:47;100914.47;;;6.77;100.00
8160;BME280;27404;52.398;9.646;2023-03-21T00:51:18;100909.44;;;6.81;100.00
8160;BME280;27404;52.398;9.646;2023-03-21T00:53:52;100910.72;;;6.78;100.00
8160;BME280;27404;52.398;9.646;2023-03-21T00:56:18;100908.41;;;6.75;100.00
8160;BME280;27404;52.398;9.646;2023-03-21T00:58:44;100904.41;;;6.78;100.00
8160;BME280;27404;52.398;9.646;2023-03-21T01:01:09;100907.38;;;6.83;100.00
8160;BME280;27404;52.398;9.646;2023-03-21T01:03:34;100903.00;;;6.89;100.00
8160;BME280;27404;52.398;9.646;2023-03-21T01:06:09;100895.25;;;6.86;100.00
8160;BME280;27404;52.398;9.646;2023-03-21T01:08:40;100906.31;;;6.84;100.00
8160;BME280;27404;52.398;9.646;2023-03-21T01:11:12;100894.00;;;6.81;100.00
8160;BME280;27404;52.398;9.646;2023-03-21T01:13:38;100893.38;;;6.86;100.00
8160;BME280;27404;52.398;9.646;2023-03-21T01:16:05;100899.03;;;6.85;100.00
8160;BME280;27404;52.398;9.646;2023-03-21T01:18:32;100896.50;;;6.76;100.00
8160;BME280;27404;52.398;9.646;2023-03-21T01:20:59;100892.09;;;6.75;100.00
8160;BME280;27404;52.398;9.646;2023-03-21T01:23:26;100898.38;;;6.82;100.00
8160;BME280;27404;52.398;9.646;2023-03-21T01:25:54;100896.50;;;6.83;100.00
8160;BME280;27404;52.398;9.646;2023-03-21T01:28:21;100896.09;;;6.86;100.00
8160;BME280;27404;52.398;9.646;2023-03-21T01:30:50;100886.91;;;6.87;100.00
8160;BME280;27404;52.398;9.646;2023-03-21T01:33:17;100897.56;;;6.89;100.00
8160;BME280;27404;52.398;9.646;2023-03-21T01:35:43;100886.28;;;6.92;100.00
8160;BME280;27404;52.398;9.646;2023-03-21T01:38:09;100885.66;;;6.90;100.00
8160;BME280;27404;52.398;9.646;2023-03-21T01:40:35;100888.78;;;6.87;100.00
8160;BME280;27404;52.398;9.646;2023-03-21T01:43:02;100893.78;;;6.83;100.00
8160;BME280;27404;52.398;9.646;2023-03-21T01:48:24;100883.78;;;6.90;100.00
8160;BME280;27404;52.398;9.646;2023-03-21T01:50:51;100889.66;;;6.94;100.00
8160;BME280;27404;52.398;9.646;2023-03-21T01:53:19;100875.22;;;6.93;100.00
8160;BME280;27404;52.398;9.646;2023-03-21T01:55:46;100881.50;;;6.94;100.00
8160;BME280;27404;52.398;9.646;2023-03-21T01:58:14;100876.47;;;6.91;100.00
8160;BME280;27404;52.398;9.646;2023-03-21T02:00:43;100875.00;;;6.95;100.00
8160;BME280;27404;52.398;9.646;2023-03-21T02:03:10;100873.53;;;6.99;100.00
8160;BME280;27404;52.398;9.646;2023-03-21T02:05:37;100876.88;;;6.94;100.00
8160;BME280;27404;52.398;9.646;2023-03-21T02:08:06;100866.41;;;6.91;100.00
8160;BME280;27404;52.398;9.646;2023-03-21T02:10:32;100873.13;;;6.89;100.00
8160;BME280;27404;52.398;9.646;2023-03-21T02:12:59;100872.06;;;6.96;100.00
8160;BME280;27404;52.398;9.646;2023-03-21T02:15:34;100862.47;;;6.94;100.00
8160;BME280;27404;52.398;9.646;2023-03-21T02:18:16;100868.94;;;7.00;100.00
8160;BME280;27404;52.398;9.646;2023-03-21T02:26:29;100851.78;;;6.99;100.00
8160;BME280;27404;52.398;9.646;2023-03-21T02:28:59;100852.63;;;7.00;100.00
8160;BME280;27404;52.398;9.646;2023-03-21T02:31:51;100853.47;;;6.93;100.00
8160;BME280;27404;52.398;9.646;2023-03-21T02:37:05;100846.16;;;7.07;100.00
8160;BME280;27404;52.398;9.646;2023-03-21T02:39:54;100838.84;;;7.08;100.00
8160;BME280;27404;52.398;9.646;2023-03-21T02:42:28;100830.25;;;7.04;100.00
8160;BME280;27404;52.398;9.646;2023-03-21T02:45:22;100837.59;;;7.04;100.00
8160;BME280;27404;52.398;9.646;2023-03-21T02:47:53;100834.03;;;7.03;100.00
8160;BME280;27404;52.398;9.646;2023-03-21T02:50:31;100837.38;;;6.99;100.00
8160;BME280;27404;52.398;9.646;2023-03-21T02:52:59;100836.97;;;7.02;100.00
8160;BME280;27404;52.398;9.646;2023-03-21T02:55:29;100843.84;;;7.04;100.00
8160;BME280;27404;52.398;9.646;2023-03-21T02:57:56;100839.47;;;7.03;100.00
8160;BME280;27404;52.398;9.646;2023-03-21T03:00:25;100835.69;;;6.97;100.00
8160;BME280;27404;52.398;9.646;2023-03-21T03:02:52;100832.97;;;6.97;100.00
8160;BME280;27404;52.398;9.646;2023-03-21T03:05:48;100831.72;;;7.00;100.00
8160;BME280;27404;52.398;9.646;2023-03-21T03:18:38;100828.59;;;7.03;100.00
8160;BME280;27404;52.398;9.646;2023-03-21T03:21:28;100822.53;;;7.01;100.00
8160;BME280;27404;52.398;9.646;2023-03-21T03:24:03;100826.91;;;7.02;100.00
8160;BME280;27404;52.398;9.646;2023-03-21T03:26:35;100820.44;;;7.03;100.00
8160;BME280;27404;52.398;9.646;2023-03-21T03:29:09;100823.78;;;7.05;100.00
8160;BME280;27404;52.398;9.646;2023-03-21T03:31:46;100815.22;;;7.02;100.00
8160;BME280;27404;52.398;9.646;2023-03-21T03:34:17;100816.06;;;7.09;100.00
8160;BME280;27404;52.398;9.646;2023-03-21T03:36:48;100822.94;;;7.11;100.00
8160;BME280;27404;52.398;9.646;2023-03-21T03:39:17;100812.31;;;7.10;100.00
8160;BME280;27404;52.398;9.646;2023-03-21T03:41:53;100822.53;;;7.08;100.00
8160;BME280;27404;52.398;9.646;2023-03-21T03:44:20;100814.81;;;7.05;100.00
8160;BME280;27404;52.398;9.646;2023-03-21T03:49:18;100821.28;;;7.10;100.00
8160;BME280;27404;52.398;9.646;2023-03-21T03:52:07;100818.56;;;7.10;100.00
8160;BME280;27404;52.398;9.646;2023-03-21T03:54:45;100813.75;;;7.13;100.00
8160;BME280;27404;52.398;9.646;2023-03-21T03:57:12;100811.03;;;7.06;100.00
8160;BME280;27404;52.398;9.646;2023-03-21T03:59:40;100813.53;;;7.07;100.00
8160;BME280;27404;52.398;9.646;2023-03-21T04:02:06;100817.72;;;7.03;100.00
8160;BME280;27404;52.398;9.646;2023-03-21T04:04:32;100808.94;;;7.01;100.00
8160;BME280;27404;52.398;9.646;2023-03-21T04:06:58;100813.94;;;7.04;100.00
8160;BME280;27404;52.398;9.646;2023-03-21T04:09:25;100814.38;;;7.01;100.00
8160;BME280;27404;52.398;9.646;2023-03-21T04:11:53;100804.75;;;7.05;100.00
8160;BME280;27404;52.398;9.646;2023-03-21T04:14:18;100810.19;;;7.05;100.00
8160;BME280;27404;52.398;9.646;2023-03-21T04:16:44;100812.28;;;7.03;100.00
8160;BME280;27404;52.398;9.646;2023-03-21T04:19:09;100810.81;;;7.01;100.00
8160;BME280;27404;52.398;9.646;2023-03-21T04:21:35;100810.19;;;7.05;100.00
8160;BME280;27404;52.398;9.646;2023-03-21T04:24:00;100815.00;;;7.03;100.00
8160;BME280;27404;52.398;9.646;2023-03-21T04:26:26;100815.00;;;7.03;100.00
8160;BME280;27404;52.398;9.646;2023-03-21T04:28:57;100813.31;;;7.02;100.00
8160;BME280;27404;52.398;9.646;2023-03-21T04:31:25;100816.44;;;6.99;100.00
8160;BME280;27404;52.398;9.646;2023-03-21T04:33:53;100809.78;;;7.02;100.00
8160;BME280;27404;52.398;9.646;2023-03-21T04:36:20;100811.00;;;6.99;100.00
8160;BME280;27404;52.398;9.646;2023-03-21T04:38:57;100812.91;;;6.99;100.00
8160;BME280;27404;52.398;9.646;2023-03-21T04:41:26;100804.75;;;6.99;100.00
8160;BME280;27404;52.398;9.646;2023-03-21T04:43:52;100796.59;;;6.99;100.00
8160;BME280;27404;52.398;9.646;2023-03-21T04:46:18;100808.75;;;7.03;100.00
8160;BME280;27404;52.398;9.646;2023-03-21T04:48:43;100797.66;;;7.11;100.00
8160;BME280;27404;52.398;9.646;2023-03-21T04:51:09;100794.09;;;7.04;100.00
8160;BME280;27404;52.398;9.646;2023-03-21T04:53:34;100801.41;;;7.03;100.00
8160;BME280;27404;52.398;9.646;2023-03-21T04:56:00;100798.06;;;7.01;100.00
8160;BME280;27404;52.398;9.646;2023-03-21T04:58:25;100792.00;;;6.99;100.00
8160;BME280;27404;52.398;9.646;2023-03-21T05:00:51;100792.63;;;6.94;100.00
8160;BME280;27404;52.398;9.646;2023-03-21T05:03:17;100797.66;;;6.97;100.00
8160;BME280;27404;52.398;9.646;2023-03-21T05:05:46;100802.22;;;6.97;100.00
8160;BME280;27404;52.398;9.646;2023-03-21T05:08:12;100791.81;;;6.94;100.00
8160;BME280;27404;52.398;9.646;2023-03-21T05:10:38;100799.97;;;6.94;100.00
8160;BME280;27404;52.398;9.646;2023-03-21T05:13:04;100800.78;;;6.94;100.00
8160;BME280;27404;52.398;9.646;2023-03-21T05:15:29;100793.03;;;6.98;100.00
8160;BME280;27404;52.398;9.646;2023-03-21T05:17:55;100802.25;;;7.04;100.00
8160;BME280;27404;52.398;9.646;2023-03-21T05:20:39;100795.97;;;7.03;100.00
8160;BME280;27404;52.398;9.646;2023-03-21T05:23:11;100799.31;;;7.05;100.00
8160;BME280;27404;52.398;9.646;2023-03-21T05:25:37;100792.44;;;7.03;100.00
8160;BME280;27404;52.398;9.646;2023-03-21T05:28:05;100793.47;;;7.08;100.00
8160;BME280;27404;52.398;9.646;2023-03-21T05:30:32;100798.06;;;7.15;100.00
8160;BME280;27404;52.398;9.646;2023-03-21T05:32:58;100796.00;;;7.10;100.00
8160;BME280;27404;52.398;9.646;2023-03-21T05:35:23;100788.47;;;7.12;100.00
8160;BME280;27404;52.398;9.646;2023-03-21T05:37:49;100797.03;;;7.16;100.00
8160;BME280;27404;52.398;9.646;2023-03-21T05:40:14;100792.22;;;7.18;100.00
8160;BME280;27404;52.398;9.646;2023-03-21T05:42:40;100789.91;;;7.15;100.00
8160;BME280;27404;52.398;9.646;2023-03-21T05:45:06;100789.91;;;7.15;100.00
8160;BME280;27404;52.398;9.646;2023-03-21T05:47:32;100792.03;;;7.19;100.00
8160;BME280;27404;52.398;9.646;2023-03-21T05:49:57;100785.72;;;7.19;100.00
8160;BME280;27404;52.398;9.646;2023-03-21T05:52:23;100791.19;;;7.25;100.00
8160;BME280;27404;52.398;9.646;2023-03-21T05:54:49;100787.63;;;7.25;100.00
8160;BME280;27404;52.398;9.646;2023-03-21T05:57:15;100791.81;;;7.28;100.00
8160;BME280;27404;52.398;9.646;2023-03-21T05:59:43;100788.66;;;7.24;100.00
8160;BME280;27404;52.398;9.646;2023-03-21T06:02:08;100793.88;;;7.32;100.00
8160;BME280;27404;52.398;9.646;2023-03-21T06:04:34;100792.63;;;7.28;100.00
8160;BME280;27404;52.398;9.646;2023-03-21T06:06:59;100791.38;;;7.31;100.00
8160;BME280;27404;52.398;9.646;2023-03-21T06:09:25;100790.13;;;7.33;100.00
8160;BME280;27404;52.398;9.646;2023-03-21T06:11:52;100789.06;;;7.34;100.00
8160;BME280;27404;52.398;9.646;2023-03-21T06:14:19;100794.31;;;7.43;100.00
8160;BME280;27404;52.398;9.646;2023-03-21T06:16:44;100785.72;;;7.39;100.00
8160;BME280;27404;52.398;9.646;2023-03-21T06:19:10;100789.50;;;7.45;100.00
8160;BME280;27404;52.398;9.646;2023-03-21T06:21:35;100791.16;;;7.46;100.00
8160;BME280;27404;52.398;9.646;2023-03-21T06:24:01;100794.50;;;7.54;100.00
8160;BME280;27404;52.398;9.646;2023-03-21T06:26:26;100794.72;;;7.53;100.00
8160;BME280;27404;52.398;9.646;2023-03-21T06:28:52;100793.44;;;7.55;100.00
8160;BME280;27404;52.398;9.646;2023-03-21T06:31:18;100794.91;;;7.51;100.00
8160;BME280;27404;52.398;9.646;2023-03-21T06:33:50;100791.56;;;7.49;100.00
8160;BME280;27404;52.398;9.646;2023-03-21T06:36:16;100794.50;;;7.48;100.00
8160;BME280;27404;52.398;9.646;2023-03-21T06:38:41;100795.75;;;7.52;100.00
8160;BME280;27404;52.398;9.646;2023-03-21T06:41:07;100790.72;;;7.55;100.00
8160;BME280;27404;52.398;9.646;2023-03-21T06:43:33;100795.53;;;7.60;100.00
8160;BME280;27404;52.398;9.646;2023-03-21T06:45:59;100800.13;;;7.60;100.00
8160;BME280;27404;52.398;9.646;2023-03-21T06:48:26;100795.72;;;7.65;100.00
8160;BME280;27404;52.398;9.646;2023-03-21T06:50:52;100798.00;;;7.68;100.00
8160;BME280;27404;52.398;9.646;2023-03-21T06:53:19;100798.63;;;7.70;100.00
8160;BME280;27404;52.398;9.646;2023-03-21T06:55:52;100789.84;;;7.75;100.00
8160;BME280;27404;52.398;9.646;2023-03-21T06:58:17;100794.44;;;7.75;100.00
8160;BME280;27404;52.398;9.646;2023-03-21T07:00:43;100799.22;;;7.86;100.00
8160;BME280;27404;52.398;9.646;2023-03-21T07:03:09;100800.28;;;7.92;100.00
8160;BME280;27404;52.398;9.646;2023-03-21T07:05:35;100791.91;;;7.87;100.00
8160;BME280;27404;52.398;9.646;2023-03-21T07:08:02;100801.91;;;7.99;100.00
8160;BME280;27404;52.398;9.646;2023-03-21T07:10:27;100810.47;;;8.03;100.00
8160;BME280;27404;52.398;9.646;2023-03-21T07:12:52;100812.59;;;8.08;100.00
8160;BME280;27404;52.398;9.646;2023-03-21T07:15:18;100795.38;;;8.14;100.00
8160;BME280;27404;52.398;9.646;2023-03-21T07:17:44;100796.59;;;8.25;100.00
8160;BME280;27404;52.398;9.646;2023-03-21T07:20:10;100800.16;;;8.19;100.00
8160;BME280;27404;52.398;9.646;2023-03-21T07:22:37;100792.41;;;8.22;100.00
8160;BME280;27404;52.398;9.646;2023-03-21T07:25:04;100790.91;;;8.33;100.00
8160;BME280;27404;52.398;9.646;2023-03-21T07:27:29;100792.91;;;8.51;100.00
8160;BME280;27404;52.398;9.646;2023-03-21T07:29:55;100795.31;;;8.73;100.00
8160;BME280;27404;52.398;9.646;2023-03-21T07:32:21;100787.06;;;8.86;100.00
8160;BME280;27404;52.398;9.646;2023-03-21T07:34:46;100789.28;;;8.96;100.00
8160;BME280;27404;52.398;9.646;2023-03-21T07:37:12;100790.41;;;9.14;100.00
8160;BME280;27404;52.398;9.646;2023-03-21T07:39:37;100785.66;;;9.28;100.00
8160;BME280;27404;52.398;9.646;2023-03-21T07:42:03;100781.59;;;9.37;100.00
8160;BME280;27404;52.398;9.646;2023-03-21T07:44:28;100782.13;;;9.46;100.00
8160;BME280;27404;52.398;9.646;2023-03-21T07:46:54;100775.19;;;9.50;100.00
8160;BME280;27404;52.398;9.646;2023-03-21T07:49:20;100773.47;;;9.56;100.00
8160;BME280;27404;52.398;9.646;2023-03-21T07:51:46;100771.63;;;9.68;100.00
8160;BME280;27404;52.398;9.646;2023-03-21T07:54:11;100779.44;;;9.65;100.00
8160;BME280;27404;52.398;9.646;2023-03-21T07:56:37;100777.78;;;9.63;100.00
8160;BME280;27404;52.398;9.646;2023-03-21T07:59:02;100777.53;;;9.65;100.00
8160;BME280;27404;52.398;9.646;2023-03-21T08:01:29;100778.16;;;9.67;100.00
8160;BME280;27404;52.398;9.646;2023-03-21T08:03:55;100776.19;;;9.74;100.00
8160;BME280;27404;52.398;9.646;2023-03-21T08:06:20;100782.25;;;9.76;100.00
8160;BME280;27404;52.398;9.646;2023-03-21T08:08:46;100777.00;;;9.56;100.00
8160;BME280;27404;52.398;9.646;2023-03-21T08:11:12;100776.47;;;9.47;100.00
8160;BME280;27404;52.398;9.646;2023-03-21T08:13:37;100780.44;;;9.52;100.00
8160;BME280;27404;52.398;9.646;2023-03-21T08:16:03;100780.19;;;9.53;100.00
8160;BME280;27404;52.398;9.646;2023-03-21T08:18:29;100778.25;;;9.35;100.00
8160;BME280;27404;52.398;9.646;2023-03-21T08:20:55;100783.03;;;9.40;100.00
8160;BME280;27404;52.398;9.646;2023-03-21T08:23:22;100786.22;;;9.37;100.00
8160;BME280;27404;52.398;9.646;2023-03-21T08:25:52;100785.28;;;9.24;100.00
8160;BME280;27404;52.398;9.646;2023-03-21T08:28:18;100784.97;;;9.14;100.00
8160;BME280;27404;52.398;9.646;2023-03-21T08:30:44;100787.19;;;9.24;100.00
8160;BME280;27404;52.398;9.646;2023-03-21T08:33:10;100777.41;;;9.34;100.00
8160;BME280;27404;52.398;9.646;2023-03-21T08:35:35;100780.25;;;9.46;100.00
8160;BME280;27404;52.398;9.646;2023-03-21T08:38:02;100780.75;;;9.37;100.00
8160;BME280;27404;52.398;9.646;2023-03-21T08:40:28;100780.75;;;9.37;100.00
8160;BME280;27404;52.398;9.646;2023-03-21T08:42:53;100781.94;;;9.47;100.00
8160;BME280;27404;52.398;9.646;2023-03-21T08:45:19;100781.94;;;9.47;100.00
8160;BME280;27404;52.398;9.646;2023-03-21T08:47:45;100782.25;;;9.58;100.00
8160;BME280;27404;52.398;9.646;2023-03-21T08:50:17;100777.53;;;9.65;100.00
8160;BME280;27404;52.398;9.646;2023-03-21T08:52:43;100777.72;;;9.89;100.00
8160;BME280;27404;52.398;9.646;2023-03-21T08:55:09;100778.09;;;9.92;100.00
8160;BME280;27404;52.398;9.646;2023-03-21T08:57:35;100785.59;;;9.97;100.00
8160;BME280;27404;52.398;9.646;2023-03-21T09:00:03;100775.94;;;9.95;100.00
8160;BME280;27404;52.398;9.646;2023-03-21T09:02:33;100772.00;;;10.09;100.00
8160;BME280;27404;52.398;9.646;2023-03-21T09:04:59;100777.75;;;10.19;100.00
8160;BME280;27404;52.398;9.646;2023-03-21T09:07:25;100775.06;;;10.31;100.00
8160;BME280;27404;52.398;9.646;2023-03-21T09:09:52;100772.34;;;10.50;100.00
8160;BME280;27404;52.398;9.646;2023-03-21T09:12:18;100767.63;;;10.57;100.00
8160;BME280;27404;52.398;9.646;2023-03-21T09:14:43;100773.03;;;10.76;100.00
8160;BME280;27404;52.398;9.646;2023-03-21T09:17:09;100767.59;;;10.88;100.00
8160;BME280;27404;52.398;9.646;2023-03-21T09:19:35;100769.25;;;10.89;100.00
8160;BME280;27404;52.398;9.646;2023-03-21T09:22:03;100768.31;;;10.95;100.00
8160;BME280;27404;52.398;9.646;2023-03-21T09:24:28;100760.50;;;11.10;100.00
8160;BME280;27404;52.398;9.646;2023-03-21T09:26:55;100759.91;;;11.20;100.00
8160;BME280;27404;52.398;9.646;2023-03-21T09:29:21;100758.94;;;11.26;100.00
8160;BME280;27404;52.398;9.646;2023-03-21T09:31:47;100758.69;;;11.16;100.00
8160;BME280;27404;52.398;9.646;2023-03-21T09:34:13;100764.69;;;11.25;100.00
8160;BME280;27404;52.398;9.646;2023-03-21T09:36:40;100766.19;;;11.45;100.00
8160;BME280;27404;52.398;9.646;2023-03-21T09:39:09;100769.78;;;11.57;100.00
8160;BME280;27404;52.398;9.646;2023-03-21T09:41:53;100766.22;;;11.57;100.00
8160;BME280;27404;52.398;9.646;2023-03-21T09:44:33;100763.72;;;11.43;100.00
8160;BME280;27404;52.398;9.646;2023-03-21T09:50:00;100765.59;;;11.07;100.00
8160;BME280;27404;52.398;9.646;2023-03-21T09:52:45;100768.22;;;11.14;100.00
8160;BME280;27404;52.398;9.646;2023-03-21T09:55:23;100764.72;;;10.94;100.00
8160;BME280;27404;52.398;9.646;2023-03-21T09:58:12;100764.16;;;10.92;100.00
8160;BME280;27404;52.398;9.646;2023-03-21T10:00:43;100766.84;;;10.80;100.00
8160;BME280;27404;52.398;9.646;2023-03-21T10:03:23;100761.69;;;10.60;100.00
8160;BME280;27404;52.398;9.646;2023-03-21T10:05:51;100768.66;;;10.44;100.00
8160;BME280;27404;52.398;9.646;2023-03-21T10:08:36;100768.25;;;10.41;100.00
8160;BME280;27404;52.398;9.646;2023-03-21T10:11:14;100766.41;;;10.34;100.00
8160;BME280;27404;52.398;9.646;2023-03-21T10:13:48;100764.03;;;10.26;100.00
8160;BME280;27404;52.398;9.646;2023-03-21T10:16:16;100769.94;;;10.42;100.00
8160;BME280;27404;52.398;9.646;2023-03-21T10:18:44;100762.16;;;10.57;100.00
8160;BME280;27404;52.398;9.646;2023-03-21T10:21:23;100758.03;;;10.66;100.00
8160;BME280;27404;52.398;9.646;2023-03-21T10:23:51;100758.13;;;10.60;100.00
8160;BME280;27404;52.398;9.646;2023-03-21T10:26:19;100764.09;;;10.69;100.00
8160;BME280;27404;52.398;9.646;2023-03-21T10:28:46;100749.38;;;10.81;100.00
8160;BME280;27404;52.398;9.646;2023-03-21T10:31:18;100752.38;;;10.92;100.00
8160;BME280;27404;52.398;9.646;2023-03-21T10:33:48;100749.94;;;10.72;100.00
8160;BME280;27404;52.398;9.646;2023-03-21T10:36:23;100743.69;;;10.83;100.00
8160;BME280;27404;52.398;9.646;2023-03-21T10:38:54;100744.97;;;10.69;100.00
8160;BME280;27404;52.398;9.646;2023-03-21T10:41:20;100747.22;;;10.72;100.00
8160;BME280;27404;52.398;9.646;2023-03-21T10:44:07;100735.47;;;10.83;100.00
8160;BME280;27404;52.398;9.646;2023-03-21T10:46:33;100740.34;;;10.81;100.00
8160;BME280;27404;52.398;9.646;2023-03-21T10:49:00;100740.75;;;10.54;100.00
8160;BME280;27404;52.398;9.646;2023-03-21T10:51:36;100742.53;;;10.48;100.00
8160;BME280;27404;52.398;9.646;2023-03-21T10:54:14;100746.91;;;10.49;100.00
8160;BME280;27404;52.398;9.646;2023-03-21T10:59:21;100742.31;;;10.62;100.00
8160;BME280;27404;52.398;9.646;2023-03-21T11:01:49;100740.38;;;10.50;100.00
8160;BME280;27404;52.398;9.646;2023-03-21T11:04:21;100750.16;;;10.58;100.00
8160;BME280;27404;52.398;9.646;2023-03-21T11:06:53;100740.75;;;10.54;100.00
8160;BME280;27404;52.398;9.646;2023-03-21T11:09:22;100737.19;;;10.54;100.00
8160;BME280;27404;52.398;9.646;2023-03-21T11:12:04;100738.13;;;10.47;100.00
8160;BME280;27404;52.398;9.646;2023-03-21T11:14:37;100730.84;;;10.41;100.00
8160;BME280;27404;52.398;9.646;2023-03-21T11:17:22;100734.78;;;10.45;100.00
8160;BME280;27404;52.398;9.646;2023-03-21T11:19:53;100736.31;;;10.41;100.00
8160;BME280;27404;52.398;9.646;2023-03-21T11:22:23;100731.66;;;10.42;100.00
8160;BME280;27404;52.398;9.646;2023-03-21T11:24:57;100728.75;;;10.36;100.00
8160;BME280;27404;52.398;9.646;2023-03-21T11:27:26;100737.22;;;10.35;100.00
8160;BME280;27404;52.398;9.646;2023-03-21T11:29:54;100730.84;;;10.41;100.00
8160;BME280;27404;52.398;9.646;2023-03-21T11:35:04;100728.72;;;10.43;100.00
8160;BME280;27404;52.398;9.646;2023-03-21T11:37:32;100727.88;;;10.43;100.00
8160;BME280;27404;52.398;9.646;2023-03-21T11:40:21;100729.06;;;10.47;100.00
8160;BME280;27404;52.398;9.646;2023-03-21T11:42:57;100721.63;;;10.54;100.00
8160;BME280;27404;52.398;9.646;2023-03-21T11:45:28;100720.34;;;10.38;100.00
8160;BME280;27404;52.398;9.646;2023-03-21T11:47:57;100721.25;;;10.50;100.00
8160;BME280;27404;52.398;9.646;2023-03-21T11:50:34;100714.13;;;10.49;100.00
8160;BME280;27404;52.398;9.646;2023-03-21T11:55:54;100708.78;;;10.55;100.00
8160;BME280;27404;52.398;9.646;2023-03-21T12:01:30;100696.06;;;10.60;100.00
8160;BME280;27404;52.398;9.646;2023-03-21T12:09:37;100699.00;;;10.47;100.00
8160;BME280;27404;52.398;9.646;2023-03-21T12:12:17;100699.25;;;10.45;100.00
8160;BME280;27404;52.398;9.646;2023-03-21T12:15:07;100700.34;;;10.56;100.00
8160;BME280;27404;52.398;9.646;2023-03-21T12:23:43;100689.16;;;10.46;100.00
8160;BME280;27404;52.398;9.646;2023-03-21T12:26:25;100684.41;;;10.53;100.00
8160;BME280;27404;52.398;9.646;2023-03-21T12:31:42;100674.94;;;10.68;100.00
8160;BME280;27404;52.398;9.646;2023-03-21T12:39:34;100673.06;;;10.80;100.00
8160;BME280;27404;52.398;9.646;2023-03-21T12:42:40;100674.56;;;10.64;100.00
8160;BME280;27404;52.398;9.646;2023-03-21T12:45:40;100672.88;;;10.63;100.00
8160;BME280;27404;52.398;9.646;2023-03-21T12:48:21;100662.41;;;10.48;100.00
8160;BME280;27404;52.398;9.646;2023-03-21T12:50:51;100664.25;;;10.35;100.00
8160;BME280;27404;52.398;9.646;2023-03-21T12:53:51;100661.00;;;10.45;100.00
8160;BME280;27404;52.398;9.646;2023-03-21T12:56:13;100655.88;;;10.49;100.00
8160;BME280;27404;52.398;9.646;2023-03-21T12:58:56;100655.06;;;10.72;100.00
8160;BME280;27404;52.398;9.646;2023-03-21T13:01:23;100651.28;;;10.73;100.00
8160;BME280;27404;52.398;9.646;2023-03-21T13:04:33;100656.19;;;10.83;100.00
8160;BME280;27404;52.398;9.646;2023-03-21T13:07:02;100650.81;;;11.00;100.00
8160;BME280;27404;52.398;9.646;2023-03-21T13:09:35;100648.09;;;11.00;100.00
8160;BME280;27404;52.398;9.646;2023-03-21T13:12:08;100645.94;;;10.78;100.00
8160;BME280;27404;52.398;9.646;2023-03-21T13:14:53;100638.94;;;10.71;100.00
8160;BME280;27404;52.398;9.646;2023-03-21T13:17:35;100633.47;;;10.71;100.00
8160;BME280;27404;52.398;9.646;2023-03-21T13:22:35;100628.66;;;10.42;100.00
8160;BME280;27404;52.398;9.646;2023-03-21T13:25:16;100629.88;;;10.46;100.00
8160;BME280;27404;52.398;9.646;2023-03-21T13:27:42;100629.03;;;10.46;100.00
8160;BME280;27404;52.398;9.646;2023-03-21T13:32:45;100620.06;;;10.38;100.00
8160;BME280;27404;52.398;9.646;2023-03-21T13:37:56;100623.38;;;10.29;100.00
8160;BME280;27404;52.398;9.646;2023-03-21T13:40:47;100620.88;;;10.27;100.00
8160;BME280;27404;52.398;9.646;2023-03-21T13:51:05;100621.47;;;10.29;100.00
8160;BME280;27404;52.398;9.646;2023-03-21T13:53:41;100620.72;;;10.10;100.00
8160;BME280;27404;52.398;9.646;2023-03-21T14:03:37;100612.59;;;9.91;100.00
8160;BME280;27404;52.398;9.646;2023-03-21T14:06:04;100615.72;;;10.07;100.00
8160;BME280;27404;52.398;9.646;2023-03-21T14:08:30;100609.91;;;10.03;100.00
8160;BME280;27404;52.398;9.646;2023-03-21T14:10:59;100606.84;;;10.12;100.00
8160;BME280;27404;52.398;9.646;2023-03-21T14:13:28;100604.59;;;10.20;100.00
8160;BME280;27404;52.398;9.646;2023-03-21T14:16:05;100603.16;;;10.18;100.00
8160;BME280;27404;52.398;9.646;2023-03-21T14:18:45;100594.38;;;10.16;100.00
8160;BME280;27404;52.398;9.646;2023-03-21T14:21:35;100601.59;;;10.10;100.00
8160;BME280;27404;52.398;9.646;2023-03-21T14:24:04;100598.63;;;10.12;100.00
8160;BME280;27404;52.398;9.646;2023-03-21T14:26:35;100594.13;;;10.17;100.00
8160;BME280;27404;52.398;9.646;2023-03-21T14:29:04;100590.81;;;10.27;100.00
8160;BME280;27404;52.398;9.646;2023-03-21T14:31:31;100588.94;;;10.28;100.00